createdAt,value
2023-03-11T00:01:12.847Z,11.40
2023-03-11T00:06:11.087Z,11.13
2023-03-11T00:11:10.754Z,9.57
2023-03-11T00:16:09.063Z,10.03
2023-03-11T00:21:07.411Z,9.00
2023-03-11T00:26:05.892Z,9.17
2023-03-11T00:31:06.376Z,8.07
2023-03-11T00:36:07.101Z,7.90
2023-03-11T00:41:05.692Z,7.50
2023-03-11T00:46:06.406Z,7.83
2023-03-11T00:51:04.840Z,8.70
2023-03-11T00:56:08.904Z,9.43
2023-03-11T01:01:10.933Z,9.63
2023-03-11T01:06:10.247Z,9.17
2023-03-11T01:11:09.337Z,11.23
2023-03-11T01:16:09.904Z,11.23
2023-03-11T01:21:08.540Z,13.40
2023-03-11T01:26:06.797Z,10.40
2023-03-11T01:31:05.452Z,9.40
2023-03-11T01:36:06.138Z,9.30
2023-03-11T01:41:05.270Z,9.63
2023-03-11T01:46:13.194Z,7.40
2023-03-11T01:51:14.755Z,6.17
2023-03-11T01:56:14.608Z,4.90
2023-03-11T02:01:13.981Z,3.87
2023-03-11T02:06:17.108Z,3.00
2023-03-11T02:11:19.286Z,1.70
2023-03-11T02:16:18.039Z,2.10
2023-03-11T02:21:25.241Z,1.33
2023-03-11T02:26:29.254Z,1.27
2023-03-11T02:31:30.748Z,1.23
2023-03-11T02:36:34.142Z,1.27
2023-03-11T02:41:34.324Z,1.43
2023-03-11T02:46:35.002Z,1.50
2023-03-11T02:51:33.390Z,1.60
2023-03-11T02:56:32.742Z,1.40
2023-03-11T03:01:31.268Z,1.53
2023-03-11T03:06:31.598Z,1.93
2023-03-11T03:11:30.167Z,1.90
2023-03-11T03:16:28.613Z,2.00
2023-03-11T03:21:27.273Z,2.13
2023-03-11T03:26:28.657Z,2.87
2023-03-11T03:31:28.104Z,2.80
2023-03-11T03:36:27.751Z,2.87
2023-03-11T03:41:34.122Z,3.70
2023-03-11T03:46:33.545Z,3.47
2023-03-11T03:51:32.144Z,3.20
2023-03-11T03:56:40.531Z,3.60
2023-03-11T04:01:39.484Z,3.13
2023-03-11T04:06:37.734Z,3.40
2023-03-11T04:11:40.508Z,3.57
2023-03-11T04:16:39.837Z,3.40
2023-03-11T04:21:42.750Z,3.67
2023-03-11T04:26:44.128Z,3.27
2023-03-11T04:31:46.516Z,3.30
2023-03-11T04:36:44.866Z,3.30
2023-03-11T04:41:47.556Z,2.33
2023-03-11T04:46:50.235Z,2.40
2023-03-11T04:51:48.666Z,2.10
2023-03-11T04:56:51.985Z,2.20
2023-03-11T05:01:50.661Z,1.53
2023-03-11T05:06:51.363Z,1.80
2023-03-11T05:11:51.849Z,1.87
2023-03-11T05:16:51.739Z,2.43
2023-03-11T05:21:50.147Z,1.97
2023-03-11T05:26:48.718Z,1.80
2023-03-11T05:31:49.753Z,2.50
2023-03-11T05:36:48.275Z,2.30
2023-03-11T05:41:47.349Z,2.53
2023-03-11T05:46:46.421Z,2.40
2023-03-11T05:51:46.957Z,2.90
2023-03-11T05:56:46.559Z,2.63
2023-03-11T06:01:45.761Z,2.30
2023-03-11T06:06:45.987Z,2.60
2023-03-11T06:11:45.206Z,3.07
2023-03-11T06:16:45.498Z,3.30
2023-03-11T06:21:45.958Z,3.53
2023-03-11T06:26:45.161Z,3.70
2023-03-11T06:31:45.888Z,3.97
2023-03-11T06:36:46.276Z,3.60
2023-03-11T06:41:44.540Z,4.00
2023-03-11T06:46:44.797Z,4.07
2023-03-11T06:51:44.066Z,4.60
2023-03-11T06:56:46.070Z,4.30
2023-03-11T07:01:44.775Z,4.83
2023-03-11T07:06:43.804Z,5.53
2023-03-11T07:11:51.298Z,4.30
2023-03-11T07:16:56.450Z,4.10
2023-03-11T07:22:03.653Z,4.60
2023-03-11T07:27:03.065Z,4.33
2023-03-11T07:32:01.651Z,5.30
2023-03-11T07:36:59.960Z,5.27
2023-03-11T07:41:57.970Z,4.77
2023-03-11T07:47:07.831Z,5.07
2023-03-11T07:52:09.011Z,4.97
2023-03-11T07:57:08.792Z,5.37
2023-03-11T08:02:08.726Z,4.20
2023-03-11T08:07:07.130Z,4.70
2023-03-11T08:12:05.590Z,4.80
2023-03-11T08:17:05.096Z,4.73
2023-03-11T08:22:05.852Z,4.40
2023-03-11T08:27:03.903Z,4.30
2023-03-11T08:32:02.499Z,4.73
2023-03-11T08:42:18.432Z,5.20
2023-03-11T08:47:16.760Z,4.60
2023-03-11T08:52:14.773Z,5.20
2023-03-11T08:57:13.486Z,5.30
2023-03-11T09:02:13.128Z,4.60
2023-03-11T09:07:13.091Z,5.20
2023-03-11T09:12:14.224Z,5.53
2023-03-11T09:17:14.550Z,4.73
2023-03-11T09:22:13.049Z,5.57
2023-03-11T09:27:13.206Z,5.03
2023-03-11T09:32:15.832Z,5.83
2023-03-11T09:37:14.721Z,6.20
2023-03-11T09:42:21.755Z,5.87
2023-03-11T09:47:32.411Z,6.17
2023-03-11T09:52:37.373Z,6.03
2023-03-11T09:57:39.733Z,5.17
2023-03-11T10:02:42.991Z,5.60
2023-03-11T10:07:42.508Z,6.20
2023-03-11T10:12:51.492Z,6.13
2023-03-11T10:18:22.094Z,6.60
2023-03-11T10:23:27.732Z,6.80
2023-03-11T10:28:32.485Z,6.17
2023-03-11T10:33:38.021Z,7.00
2023-03-11T10:38:42.438Z,8.27
2023-03-11T10:43:44.764Z,7.90
2023-03-11T10:48:44.817Z,7.20
2023-03-11T10:53:47.814Z,8.20
2023-03-11T10:58:50.863Z,8.37
2023-03-11T11:03:53.222Z,8.87
2023-03-11T11:09:04.714Z,8.67
2023-03-11T11:14:03.489Z,8.53
2023-03-11T11:19:05.361Z,9.80
2023-03-11T11:24:23.989Z,8.73
2023-03-11T11:29:22.311Z,8.30
2023-03-11T11:34:34.789Z,10.20
2023-03-11T11:39:48.169Z,10.00
2023-03-11T11:44:50.679Z,9.03
2023-03-11T11:49:55.829Z,8.83
2023-03-11T11:54:58.931Z,8.30
2023-03-11T11:59:58.110Z,8.70
2023-03-11T12:05:07.370Z,7.40
2023-03-11T12:10:23.465Z,8.70
2023-03-11T12:15:25.901Z,7.33
2023-03-11T12:20:32.656Z,7.00
2023-03-11T12:25:37.970Z,8.23
2023-03-11T12:30:40.345Z,7.47
2023-03-11T12:35:40.335Z,7.70
2023-03-11T12:40:59.941Z,8.00
2023-03-11T12:45:59.906Z,7.80
2023-03-11T12:51:00.145Z,6.77
2023-03-11T12:56:11.963Z,8.73
2023-03-11T13:01:30.643Z,7.20
2023-03-11T13:07:01.383Z,7.40
2023-03-11T13:11:59.577Z,7.60
2023-03-11T13:17:18.196Z,6.93
2023-03-11T13:23:06.670Z,6.37
2023-03-11T13:28:33.380Z,6.30
2023-03-11T13:33:43.867Z,6.20
2023-03-11T13:39:07.001Z,5.30
2023-03-11T13:44:14.978Z,4.20
2023-03-11T13:49:25.712Z,5.60
2023-03-11T13:54:44.989Z,5.40
2023-03-11T13:59:43.041Z,4.63
2023-03-11T14:04:48.289Z,4.80
2023-03-11T14:09:48.036Z,5.03
2023-03-11T14:14:52.230Z,4.90
2023-03-11T14:20:06.979Z,4.00
2023-03-11T14:25:10.906Z,5.20
2023-03-11T14:30:19.376Z,4.73
2023-03-11T14:40:39.774Z,4.10
2023-03-11T14:45:41.844Z,3.97
2023-03-11T14:50:40.197Z,4.03
2023-03-11T14:55:42.932Z,4.07
2023-03-11T15:00:46.443Z,3.77
2023-03-11T15:05:48.959Z,2.93
2023-03-11T15:11:22.805Z,3.33
2023-03-11T15:16:27.514Z,3.20
2023-03-11T15:21:26.271Z,2.90
2023-03-11T15:26:28.409Z,2.53
2023-03-11T15:31:35.511Z,2.53
2023-03-11T15:36:35.983Z,2.40
2023-03-11T15:41:35.748Z,2.57
2023-03-11T15:46:34.471Z,2.80
2023-03-11T15:51:32.740Z,2.53
2023-03-11T15:56:33.311Z,2.03
2023-03-11T16:01:32.969Z,2.20
2023-03-11T16:06:31.263Z,2.40
2023-03-11T16:11:32.779Z,2.40
2023-03-11T16:16:32.700Z,3.50
2023-03-11T16:21:36.394Z,2.03
2023-03-11T16:26:36.300Z,1.90
2023-03-11T16:31:36.071Z,2.10
2023-03-11T16:36:34.399Z,2.47
2023-03-11T16:41:42.282Z,2.17
2023-03-11T16:46:41.985Z,2.33
2023-03-11T16:51:40.264Z,2.00
2023-03-11T16:56:41.693Z,1.70
2023-03-11T17:01:41.400Z,1.93
2023-03-11T17:06:40.412Z,2.77
2023-03-11T17:11:38.678Z,2.97
2023-03-11T17:16:37.113Z,3.10
2023-03-11T17:21:36.853Z,4.40
2023-03-11T17:26:35.291Z,3.90
2023-03-11T17:31:33.587Z,3.17
2023-03-11T17:36:31.928Z,3.23
2023-03-11T17:41:31.617Z,3.07
2023-03-11T17:46:29.926Z,2.77
2023-03-11T17:51:28.192Z,2.93
2023-03-11T17:56:26.810Z,2.87
2023-03-11T18:01:28.137Z,3.63
2023-03-11T18:06:26.581Z,5.10
2023-03-11T18:11:26.924Z,4.30
2023-03-11T18:16:28.104Z,2.63
2023-03-11T18:21:27.991Z,2.73
2023-03-11T18:26:28.083Z,2.67
2023-03-11T18:31:29.018Z,4.20
2023-03-11T18:36:29.731Z,4.27
2023-03-11T18:41:29.060Z,4.40
2023-03-11T18:46:31.763Z,4.20
2023-03-11T18:51:32.498Z,3.83
2023-03-11T18:56:32.173Z,3.90
2023-03-11T19:01:33.140Z,4.20
2023-03-11T19:06:31.610Z,3.20
2023-03-11T19:11:29.889Z,2.80
2023-03-11T19:16:28.282Z,3.33
2023-03-11T19:21:28.004Z,3.40
2023-03-11T19:26:43.187Z,3.20
2023-03-11T19:31:44.176Z,3.33
2023-03-11T19:36:46.871Z,2.63
2023-03-11T19:41:44.932Z,3.20
2023-03-11T19:46:43.414Z,3.00
2023-03-11T19:51:49.701Z,2.90
2023-03-11T19:56:50.511Z,3.10
2023-03-11T20:01:49.085Z,3.23
2023-03-11T20:06:47.913Z,2.70
2023-03-11T20:11:46.825Z,3.50
2023-03-11T20:16:46.584Z,2.63
2023-03-11T20:21:46.038Z,2.87
2023-03-11T20:26:44.688Z,2.40
2023-03-11T20:31:43.075Z,2.50
2023-03-11T20:36:42.911Z,2.30
2023-03-11T20:41:42.146Z,5.60
2023-03-11T20:46:40.640Z,8.43
2023-03-11T20:51:41.527Z,5.80
2023-03-11T20:56:41.980Z,4.07
2023-03-11T21:01:40.508Z,2.73
2023-03-11T21:06:41.109Z,2.70
2023-03-11T21:11:39.625Z,2.67
2023-03-11T21:16:39.452Z,3.10
2023-03-11T21:21:38.034Z,2.40
2023-03-11T21:26:36.653Z,2.80
2023-03-11T21:31:35.302Z,3.47
2023-03-11T21:36:36.106Z,2.80
2023-03-11T21:41:34.607Z,2.30
2023-03-11T21:46:33.972Z,2.43
2023-03-11T21:51:32.357Z,1.93
2023-03-11T21:56:32.211Z,2.80
2023-03-11T22:01:30.612Z,1.47
2023-03-11T22:06:31.140Z,1.67
2023-03-11T22:11:31.211Z,1.53
2023-03-11T22:16:29.834Z,2.40
2023-03-11T22:27:03.924Z,1.77
2023-03-11T22:32:02.306Z,2.00
2023-03-11T22:37:00.728Z,1.70
2023-03-11T22:41:59.005Z,1.80
2023-03-11T22:46:58.658Z,1.23
2023-03-11T22:51:57.162Z,1.50
2023-03-11T22:56:55.428Z,2.50
2023-03-11T23:01:53.828Z,1.70
2023-03-11T23:06:54.600Z,1.90
2023-03-11T23:11:55.925Z,2.10
2023-03-11T23:16:54.256Z,2.43
2023-03-11T23:21:54.013Z,1.87
2023-03-11T23:26:52.282Z,1.53
2023-03-11T23:31:50.537Z,1.60
2023-03-11T23:36:48.836Z,1.67
2023-03-11T23:41:48.455Z,1.40
2023-03-11T23:46:46.723Z,1.60
2023-03-11T23:51:45.193Z,1.70
2023-03-11T23:56:44.932Z,1.23
